< < Back
Terminal Aerodrome Forecast


Current Version              Previous Versions:   1  2  3  4  5  6  7  8  9  

Terminal Aerodrome Forecast

274
FTUS42 KCHS 201700 CCA
TAFCHS
TAF COR
KCHS 201744Z 2018/2118 27008G13KT P6SM SCT035 SCT060
      TEMPO 2018/2020 SCT035 BKN060
     FM202200 20008KT P6SM SCT045 SCT070
     FM210200 VRB04KT P6SM SKC=

Latest METAR

392
SAUS80 KWBC 202200 RRA
MTRCHS
METAR KCHS 202156Z 27005KT 10SM FEW050 34/22 A2996 RMK AO2 SLP146
T03440217


USA.gov is the U.S. government's official web portal to all federal, state and local government web resources and services.